Time;durP1;ratioP1;P1;durP2;ratioP2;P2;SDS_P1;SDS_P2;PMS_P1;PMS_P2;Temp;Humidity;BMP_temperature;BMP_pressure;BME280_temperature;BME280_humidity;BME280_pressure;Samples;Min_cycle;Max_cycle;Signal;HPM_P1;HPM_P2
2022/09/28 00:01:19;;;;;;;10.47;7.83;;;9.20;99.90;;;;;;5143145;27;20110;-58
2022/09/28 00:03:46;;;;;;;9.70;7.55;;;9.20;99.90;;;;;;5139143;27;20096;-59
2022/09/28 00:06:15;;;;;;;10.50;8.45;;;9.20;99.90;;;;;;5141614;27;20043;-55
2022/09/28 00:08:40;;;;;;;9.40;7.65;;;9.20;99.90;;;;;;5125894;27;20480;-58
2022/09/28 00:11:07;;;;;;;11.17;8.33;;;9.20;99.90;;;;;;5134150;27;20050;-55
2022/09/28 00:13:34;;;;;;;12.85;8.65;;;9.10;99.90;;;;;;5130553;27;20032;-56
2022/09/28 00:16:04;;;;;;;12.63;7.75;;;9.20;99.90;;;;;;5151449;27;20041;-54
2022/09/28 00:18:29;;;;;;;11.95;8.60;;;9.20;99.90;;;;;;5147154;27;20050;-56
2022/09/28 00:21:05;;;;;;;13.27;9.37;;;9.20;99.90;;;;;;5134171;27;20373;-58
2022/09/28 00:23:31;;;;;;;11.80;8.60;;;9.20;99.90;;;;;;5144524;27;20399;-54
2022/09/28 00:26:04;;;;;;;12.57;8.90;;;9.20;99.90;;;;;;5098703;27;20050;-55
2022/09/28 00:28:30;;;;;;;15.60;9.82;;;9.20;99.90;;;;;;5128914;27;20027;-54
2022/09/28 00:30:57;;;;;;;13.50;9.68;;;9.20;99.90;;;;;;5131289;27;20078;-56
2022/09/28 00:33:23;;;;;;;12.10;8.75;;;9.10;99.90;;;;;;5142072;27;20513;-58
2022/09/28 00:35:56;;;;;;;10.07;8.85;;;9.10;99.90;;;;;;5102591;27;20040;-58
2022/09/28 00:38:25;;;;;;;13.68;9.63;;;9.10;99.90;;;;;;5138773;27;20035;-56
2022/09/28 00:40:50;;;;;;;12.10;9.65;;;9.10;99.90;;;;;;5135152;27;20077;-55
2022/09/28 00:43:20;;;;;;;11.87;9.73;;;9.10;99.90;;;;;;5145642;27;20110;-53
2022/09/28 00:46:10;;;;;;;11.30;9.82;;;9.10;99.90;;;;;;5133172;27;20404;-57
2022/09/28 00:48:39;;;;;;;10.05;8.48;;;9.10;99.90;;;;;;5124362;27;20049;-57
2022/09/28 00:51:10;;;;;;;11.18;9.05;;;9.10;99.90;;;;;;5143859;27;20034;-56
2022/09/28 00:53:38;;;;;;;13.18;8.65;;;9.10;99.90;;;;;;5146324;27;20114;-57
2022/09/28 00:56:07;;;;;;;12.55;9.95;;;9.10;99.90;;;;;;5126518;27;20043;-56
2022/09/28 00:58:39;;;;;;;14.07;10.02;;;9.10;99.90;;;;;;5134612;27;20070;-52
2022/09/28 01:01:05;;;;;;;10.48;8.93;;;9.20;99.90;;;;;;5131290;27;20577;-56
2022/09/28 01:03:31;;;;;;;13.25;8.88;;;9.10;99.90;;;;;;5108521;27;20106;-57
2022/09/28 01:05:58;;;;;;;;;;;9.10;99.90;;;;;;5135349;27;20083;-58
2022/09/28 01:08:29;;;;;;;11.45;9.48;;;9.10;99.90;;;;;;5139080;27;19914;-57
2022/09/28 01:10:56;;;;;;;12.23;9.18;;;9.10;99.90;;;;;;5143117;27;20076;-58
2022/09/28 01:13:23;;;;;;;10.98;9.80;;;9.10;99.90;;;;;;5134515;27;20031;-53
2022/09/28 01:16:01;;;;;;;12.32;9.38;;;9.10;99.90;;;;;;5146020;27;20035;-60
2022/09/28 01:19:05;;;;;;;15.85;9.93;;;9.10;99.90;;;;;;5134367;27;20410;-54
2022/09/28 01:21:47;;;;;;;11.15;9.45;;;9.10;99.90;;;;;;5139900;27;20038;-58
2022/09/28 01:24:20;;;;;;;14.02;9.90;;;9.20;99.90;;;;;;5140239;27;20428;-57
2022/09/28 01:26:58;;;;;;;15.10;9.35;;;9.10;99.90;;;;;;5119934;27;20045;-53
2022/09/28 01:29:47;;;;;;;14.15;10.73;;;9.10;99.90;;;;;;5125535;27;20111;-56
2022/09/28 01:32:24;;;;;;;11.50;9.25;;;9.10;99.90;;;;;;5114099;27;20324;-56
2022/09/28 01:35:04;;;;;;;18.13;9.73;;;9.10;99.90;;;;;;5138750;27;20570;-56
2022/09/28 01:37:39;;;;;;;11.85;8.25;;;9.10;99.90;;;;;;5127611;27;20110;-58
2022/09/28 01:40:07;;;;;;;11.32;7.88;;;9.20;99.90;;;;;;5133741;27;20035;-54
2022/09/28 01:42:36;;;;;;;12.90;9.80;;;9.20;99.90;;;;;;5138130;27;20306;-55
2022/09/28 01:45:13;;;;;;;15.50;8.38;;;9.10;99.90;;;;;;5139482;27;20446;-57
2022/09/28 01:47:40;;;;;;;11.10;8.27;;;9.10;99.90;;;;;;5137706;27;20527;-56
2022/09/28 01:50:11;;;;;;;9.93;8.55;;;9.10;99.90;;;;;;5144806;27;20402;-58
2022/09/28 01:52:51;;;;;;;10.55;9.07;;;9.10;99.90;;;;;;5132893;27;20035;-57
2022/09/28 01:55:25;;;;;;;9.82;8.15;;;9.10;99.90;;;;;;5114229;27;20112;-58
2022/09/28 01:58:26;;;;;;;12.30;9.02;;;9.00;99.90;;;;;;5134728;27;20045;-59
2022/09/28 02:00:58;;;;;;;10.32;8.82;;;9.00;99.90;;;;;;5130023;27;20085;-55
2022/09/28 02:03:31;;;;;;;12.98;10.35;;;8.90;99.90;;;;;;5126918;27;20576;-56
2022/09/28 02:06:04;;;;;;;14.45;9.15;;;8.90;99.90;;;;;;5119235;27;20497;-57
2022/09/28 02:08:38;;;;;;;10.52;9.38;;;8.90;99.90;;;;;;5135606;27;20035;-57
2022/09/28 02:11:13;;;;;;;13.18;10.27;;;8.90;99.90;;;;;;5135123;27;20144;-58
2022/09/28 02:13:55;;;;;;;14.30;9.88;;;8.90;99.90;;;;;;5135683;27;20070;-57
2022/09/28 02:16:36;;;;;;;15.43;10.15;;;8.80;99.90;;;;;;5092425;28;20044;-58
2022/09/28 02:19:02;;;;;;;13.02;11.00;;;8.80;99.90;;;;;;5102977;27;20038;-55
2022/09/28 02:21:42;;;;;;;15.07;11.35;;;8.80;99.90;;;;;;5145060;27;20551;-54
2022/09/28 02:24:15;;;;;;;12.25;9.90;;;8.80;99.90;;;;;;5139181;27;20031;-55
2022/09/28 02:26:44;;;;;;;11.43;8.82;;;8.80;99.90;;;;;;5146334;27;20032;-56
2022/09/28 02:29:10;;;;;;;18.35;9.10;;;8.70;99.90;;;;;;5133598;27;20031;-57
2022/09/28 02:31:36;;;;;;;14.50;11.65;;;8.70;99.90;;;;;;5144561;27;20070;-56
2022/09/28 02:34:01;;;;;;;11.40;9.80;;;8.70;99.90;;;;;;5139231;27;20543;-56
2022/09/28 02:36:27;;;;;;;10.37;9.23;;;8.70;99.90;;;;;;5136758;27;20050;-58
2022/09/28 02:38:56;;;;;;;14.50;10.73;;;8.70;99.90;;;;;;5140698;27;20293;-56
2022/09/28 02:41:40;;;;;;;11.95;10.63;;;8.70;99.90;;;;;;5136714;27;20437;-56
2022/09/28 02:44:06;;;;;;;7.47;6.70;;;8.60;99.90;;;;;;5143230;27;20511;-53
2022/09/28 02:46:57;;;;;;;8.13;6.07;;;8.60;99.90;;;;;;5135513;27;20035;-59
2022/09/28 02:49:40;;;;;;;14.32;10.40;;;8.60;99.90;;;;;;5134044;27;20072;-54
2022/09/28 02:52:21;;;;;;;10.80;9.13;;;8.60;99.90;;;;;;5117397;27;20408;-55
2022/09/28 02:55:11;;;;;;;9.63;7.80;;;8.50;99.90;;;;;;5135839;27;20449;-56
2022/09/28 02:58:14;;;;;;;9.40;5.20;;;8.50;99.90;;;;;;5134484;27;20495;-55
2022/09/28 03:01:02;;;;;;;14.07;8.35;;;8.50;99.90;;;;;;5137855;27;20546;-58
2022/09/28 03:03:40;;;;;;;11.07;8.68;;;8.50;99.90;;;;;;5135223;27;20487;-59
2022/09/28 03:06:34;;;;;;;13.07;8.85;;;8.40;99.90;;;;;;5142422;27;20419;-59
2022/09/28 03:09:24;;;;;;;12.70;9.77;;;8.50;99.90;;;;;;5087128;27;20046;-58
2022/09/28 03:11:57;;;;;;;15.40;9.70;;;8.40;99.90;;;;;;5137023;27;20449;-57
2022/09/28 03:14:22;;;;;;;14.07;9.45;;;8.50;99.90;;;;;;5146017;27;20546;-57
2022/09/28 03:16:48;;;;;;;11.10;9.17;;;8.50;99.90;;;;;;5135193;27;20035;-58
2022/09/28 03:19:16;;;;;;;9.70;8.03;;;8.40;99.90;;;;;;5117918;27;20144;-54
2022/09/28 03:21:42;;;;;;;9.32;7.53;;;8.40;99.90;;;;;;5143900;27;20039;-55
2022/09/28 03:24:09;;;;;;;13.73;9.00;;;8.50;99.90;;;;;;5149253;27;20065;-56
2022/09/28 03:26:36;;;;;;;10.10;9.10;;;8.40;99.90;;;;;;5140192;27;20047;-59
2022/09/28 03:29:02;;;;;;;11.88;8.75;;;8.40;99.90;;;;;;5140003;27;20082;-56
2022/09/28 03:31:27;;;;;;;9.80;7.77;;;8.40;99.90;;;;;;5144596;27;20087;-58
2022/09/28 03:33:53;;;;;;;13.53;8.10;;;8.40;99.90;;;;;;5130865;27;20048;-58
2022/09/28 03:36:18;;;;;;;8.77;7.68;;;8.50;99.90;;;;;;5143794;27;20057;-57
2022/09/28 03:38:44;;;;;;;14.80;9.77;;;8.50;99.90;;;;;;5153299;27;20369;-56
2022/09/28 03:41:10;;;;;;;10.68;8.50;;;8.50;99.90;;;;;;5146054;27;20064;-58
2022/09/28 03:43:35;;;;;;;12.47;9.97;;;8.50;99.90;;;;;;5124437;27;20217;-55
2022/09/28 03:46:01;;;;;;;16.13;10.70;;;8.60;99.90;;;;;;5151253;27;20031;-56
2022/09/28 03:48:29;;;;;;;12.20;9.55;;;8.60;99.90;;;;;;5137267;27;20031;-57
2022/09/28 03:50:56;;;;;;;11.65;8.20;;;8.60;99.90;;;;;;5149411;27;20031;-55
2022/09/28 03:53:22;;;;;;;11.57;9.13;;;8.60;99.90;;;;;;5137166;27;20039;-54
2022/09/28 03:55:49;;;;;;;14.32;9.82;;;8.60;99.90;;;;;;5152274;27;20122;-53
2022/09/28 03:58:15;;;;;;;12.10;9.05;;;8.60;99.90;;;;;;5137268;27;20474;-53
2022/09/28 04:00:41;;;;;;;14.82;11.70;;;8.60;99.90;;;;;;5144040;27;20043;-56
2022/09/28 04:03:07;;;;;;;10.30;9.23;;;8.60;99.90;;;;;;5139591;27;20464;-57
2022/09/28 04:05:32;;;;;;;13.40;9.75;;;8.70;99.90;;;;;;5131856;27;20038;-57
2022/09/28 04:07:58;;;;;;;11.30;8.60;;;8.70;99.90;;;;;;5134728;27;20036;-55
2022/09/28 04:10:24;;;;;;;10.80;9.17;;;8.70;99.90;;;;;;5131987;27;20502;-56
2022/09/28 04:12:53;;;;;;;14.65;9.63;;;8.60;99.90;;;;;;5124267;27;20039;-60
2022/09/28 04:15:19;;;;;;;9.70;8.68;;;8.60;99.90;;;;;;5127759;27;20050;-56
2022/09/28 04:17:44;;;;;;;15.93;8.53;;;8.60;99.90;;;;;;5126397;27;20038;-54
2022/09/28 04:20:10;;;;;;;11.73;9.63;;;8.50;99.90;;;;;;5142927;27;20047;-59
2022/09/28 04:22:36;;;;;;;15.67;10.33;;;8.50;99.90;;;;;;5142418;27;20114;-55
2022/09/28 04:25:03;;;;;;;13.18;10.23;;;8.50;99.90;;;;;;5141089;27;20030;-55
2022/09/28 04:30:12;;;;;;;15.50;10.68;;;8.50;99.90;;;;;;5126385;27;20042;-56
2022/09/28 04:32:38;;;;;;;14.97;11.63;;;8.60;99.90;;;;;;5137981;27;20035;-56
2022/09/28 04:35:04;;;;;;;18.08;12.70;;;8.60;99.90;;;;;;5146754;27;20057;-56
2022/09/28 04:37:30;;;;;;;18.50;12.32;;;8.60;99.90;;;;;;5142361;27;20058;-53
2022/09/28 04:39:56;;;;;;;15.20;12.40;;;8.60;99.90;;;;;;5139842;27;20119;-56
2022/09/28 04:42:21;;;;;;;18.92;14.90;;;8.60;99.90;;;;;;5151067;27;20026;-56
2022/09/28 04:44:47;;;;;;;19.17;16.40;;;8.60;99.90;;;;;;5136763;27;20039;-56
2022/09/28 04:47:12;;;;;;;18.83;12.80;;;8.70;99.90;;;;;;5142821;27;20031;-53
2022/09/28 04:49:38;;;;;;;20.10;13.57;;;8.70;99.90;;;;;;5134243;27;20297;-55
2022/09/28 04:52:04;;;;;;;22.50;14.77;;;8.70;99.90;;;;;;5136882;27;20030;-59
2022/09/28 04:54:30;;;;;;;;;;;8.70;99.90;;;;;;5128910;27;20027;-56
2022/09/28 04:56:56;;;;;;;32.05;20.17;;;8.70;99.90;;;;;;5116835;27;19960;-55
2022/09/28 04:59:22;;;;;;;;;;;8.70;99.90;;;;;;5151990;27;20071;-57
2022/09/28 05:01:48;;;;;;;44.88;19.90;;;8.70;99.90;;;;;;5134264;27;19978;-54
2022/09/28 05:04:13;;;;;;;35.42;20.60;;;8.70;99.90;;;;;;5139984;27;20039;-58
2022/09/28 05:06:39;;;;;;;68.93;21.97;;;8.60;99.90;;;;;;5133085;27;20043;-56
2022/09/28 05:09:05;;;;;;;49.63;21.70;;;8.60;99.90;;;;;;5143111;27;20765;-57
2022/09/28 05:11:31;;;;;;;;;;;8.60;99.90;;;;;;5134105;27;20300;-56
2022/09/28 05:13:57;;;;;;;51.40;19.25;;;8.60;99.90;;;;;;5142370;27;19920;-58
2022/09/28 05:16:24;;;;;;;68.40;22.30;;;8.60;99.90;;;;;;5142722;27;20579;-56
2022/09/28 05:18:54;;;;;;;68.38;23.30;;;8.60;99.90;;;;;;5140282;27;20288;-58
2022/09/28 05:21:19;;;;;;;34.90;21.55;;;8.60;99.90;;;;;;5142906;27;20054;-57
2022/09/28 05:23:46;;;;;;;51.73;23.97;;;8.60;99.90;;;;;;5137859;27;20035;-55
2022/09/28 05:26:12;;;;;;;34.83;22.02;;;8.60;99.90;;;;;;5128514;27;20043;-58
2022/09/28 05:28:37;;;;;;;35.38;22.10;;;8.60;99.90;;;;;;5139511;27;20026;-53
2022/09/28 05:31:04;;;;;;;38.17;24.03;;;8.60;99.90;;;;;;5117526;27;20164;-56
2022/09/28 05:33:31;;;;;;;32.85;20.60;;;8.60;99.90;;;;;;5131401;27;20035;-55
2022/09/28 05:35:57;;;;;;;29.42;20.45;;;8.60;99.90;;;;;;5131167;27;20042;-56
2022/09/28 05:38:23;;;;;;;;;;;8.60;99.90;;;;;;5121918;27;20035;-58
2022/09/28 05:40:49;;;;;;;36.38;21.80;;;8.60;99.90;;;;;;5119785;27;19923;-56
2022/09/28 05:43:14;;;;;;;49.67;21.73;;;8.60;99.90;;;;;;5111994;27;20160;-60
2022/09/28 05:45:40;;;;;;;25.67;18.20;;;8.60;99.90;;;;;;5144447;27;20042;-55
2022/09/28 05:48:05;;;;;;;26.17;18.73;;;8.60;99.90;;;;;;5140944;27;20038;-56
2022/09/28 05:50:31;;;;;;;78.00;19.93;;;8.60;99.90;;;;;;5113529;27;20070;-57
2022/09/28 05:53:05;;;;;;;57.30;20.00;;;8.60;99.90;;;;;;5131344;27;20118;-59
2022/09/28 05:55:31;;;;;;;46.03;18.73;;;8.60;99.90;;;;;;5118465;27;20036;-59
2022/09/28 05:58:02;;;;;;;49.13;19.48;;;8.50;99.90;;;;;;5117343;27;20035;-58
2022/09/28 06:00:28;;;;;;;129.45;22.08;;;8.50;99.90;;;;;;5111012;28;20042;-56
2022/09/28 06:02:54;;;;;;;;;;;8.50;99.90;;;;;;5120821;27;20039;-61
2022/09/28 06:05:20;;;;;;;48.80;17.38;;;8.50;99.90;;;;;;5113205;27;19968;-55
2022/09/28 06:07:45;;;;;;;24.77;18.10;;;8.50;99.90;;;;;;5129404;27;20035;-57
2022/09/28 06:10:11;;;;;;;39.43;15.97;;;8.50;99.90;;;;;;5131335;27;20122;-57
2022/09/28 06:12:36;;;;;;;42.03;16.50;;;8.50;99.90;;;;;;5130775;27;20461;-54
2022/09/28 06:15:02;;;;;;;30.23;15.30;;;8.50;99.90;;;;;;5130703;27;20551;-59
2022/09/28 06:17:28;;;;;;;106.13;19.95;;;8.50;99.90;;;;;;5130042;27;20118;-56
2022/09/28 06:19:53;;;;;;;27.13;17.70;;;8.50;99.90;;;;;;5120897;27;20043;-59
2022/09/28 06:22:19;;;;;;;133.83;22.03;;;8.50;99.90;;;;;;5130045;27;20526;-54
2022/09/28 06:24:44;;;;;;;52.90;18.17;;;8.50;99.90;;;;;;5117511;27;20032;-58
2022/09/28 06:27:10;;;;;;;55.67;20.37;;;8.50;99.90;;;;;;5136590;27;20038;-58
2022/09/28 06:29:35;;;;;;;67.90;18.07;;;8.50;99.90;;;;;;5133559;27;20027;-57
2022/09/28 06:32:01;;;;;;;51.13;16.60;;;8.50;99.90;;;;;;5130583;28;20043;-58
2022/09/28 06:34:28;;;;;;;45.60;16.10;;;8.50;99.90;;;;;;5130784;28;20392;-58
2022/09/28 06:36:54;;;;;;;73.80;16.15;;;8.50;99.90;;;;;;5112673;28;20047;-57
2022/09/28 06:39:20;;;;;;;156.00;20.17;;;8.50;99.90;;;;;;5130882;28;20023;-54
2022/09/28 06:41:45;;;;;;;96.83;17.07;;;8.40;99.90;;;;;;5130718;28;20304;-54
2022/09/28 06:44:11;;;;;;;34.00;15.53;;;8.40;99.90;;;;;;5112327;28;20050;-53
2022/09/28 06:46:38;;;;;;;34.80;13.83;;;8.40;99.90;;;;;;5130248;28;20039;-58
2022/09/28 06:49:05;;;;;;;37.00;13.60;;;8.40;99.90;;;;;;5112424;28;20047;-56
2022/09/28 06:51:31;;;;;;;41.00;13.85;;;8.40;99.90;;;;;;5130841;28;20039;-58
2022/09/28 06:53:57;;;;;;;52.78;14.00;;;8.40;99.90;;;;;;5130454;28;20043;-55
2022/09/28 06:56:23;;;;;;;21.27;11.60;;;8.40;99.90;;;;;;5130549;28;20376;-56
2022/09/28 06:58:48;;;;;;;17.50;12.33;;;8.40;99.90;;;;;;5130909;28;20130;-55
2022/09/28 07:01:14;;;;;;;34.00;12.67;;;8.40;99.90;;;;;;5144690;27;20034;-54
2022/09/28 07:03:39;;;;;;;86.30;14.23;;;8.50;99.90;;;;;;5114412;28;20178;-51
2022/09/28 07:06:05;;;;;;;50.57;12.27;;;8.40;99.90;;;;;;5139913;27;20368;-53
2022/09/28 07:08:30;;;;;;;32.45;11.90;;;8.40;99.90;;;;;;5135888;27;20050;-57
2022/09/28 07:10:56;;;;;;;62.27;13.40;;;8.40;99.90;;;;;;5130588;27;20073;-54
2022/09/28 07:13:27;;;;;;;20.40;10.67;;;8.40;99.90;;;;;;5130344;28;20035;-56
2022/09/28 07:15:58;;;;;;;15.32;9.50;;;8.40;99.90;;;;;;5144676;27;20569;-58
2022/09/28 07:18:25;;;;;;;22.25;10.32;;;8.40;99.90;;;;;;5134148;27;20444;-56
2022/09/28 07:20:51;;;;;;;13.48;9.27;;;8.50;99.90;;;;;;5152076;27;20398;-55
2022/09/28 07:23:17;;;;;;;22.33;11.40;;;8.50;99.90;;;;;;5151668;27;20035;-57
2022/09/28 07:25:46;;;;;;;37.03;10.52;;;8.60;99.90;;;;;;5117504;27;20046;-58
2022/09/28 07:28:12;;;;;;;24.25;10.05;;;8.50;99.90;;;;;;5135080;27;20035;-58
2022/09/28 07:30:38;;;;;;;55.55;12.02;;;8.60;99.90;;;;;;5148640;27;20080;-57
2022/09/28 07:33:05;;;;;;;33.78;11.00;;;8.50;99.90;;;;;;5137302;27;20071;-58
2022/09/28 07:35:33;;;;;;;25.35;11.60;;;8.50;99.90;;;;;;5120995;27;20543;-55
2022/09/28 07:38:01;;;;;;;38.78;10.88;;;8.50;99.90;;;;;;5122085;27;20039;-55
2022/09/28 07:43:19;;;;;;;53.25;14.25;;;8.50;99.90;;;;;;5133967;27;20047;-55
2022/09/28 07:45:48;;;;;;;64.47;15.80;;;8.50;99.90;;;;;;5145935;27;20488;-57
2022/09/28 07:48:15;;;;;;;36.90;14.18;;;8.50;99.90;;;;;;5115481;27;20039;-60
2022/09/28 07:50:55;;;;;;;40.08;13.52;;;8.60;99.90;;;;;;5147904;27;20031;-56
2022/09/28 07:53:23;;;;;;;44.08;14.52;;;8.60;99.90;;;;;;5146186;27;20078;-59
2022/09/28 07:56:08;;;;;;;94.53;16.13;;;8.60;99.90;;;;;;5153702;27;20042;-58
2022/09/28 07:58:38;;;;;;;168.05;22.90;;;8.60;99.90;;;;;;5120160;27;20106;-57
2022/09/28 08:01:06;;;;;;;37.65;13.23;;;8.60;99.90;;;;;;5124180;27;20400;-57
2022/09/28 08:03:33;;;;;;;57.58;16.33;;;8.60;99.90;;;;;;5137641;27;20407;-57
2022/09/28 08:06:01;;;;;;;47.30;16.65;;;8.50;99.90;;;;;;5133838;27;20061;-59
2022/09/28 08:08:28;;;;;;;36.30;16.23;;;8.60;99.90;;;;;;5147199;27;20492;-58
2022/09/28 08:10:55;;;;;;;22.60;14.57;;;8.60;99.90;;;;;;5142521;27;20045;-57
2022/09/28 08:13:22;;;;;;;18.55;14.18;;;8.60;99.90;;;;;;5114864;27;20078;-59
2022/09/28 08:15:49;;;;;;;25.42;16.55;;;8.70;99.90;;;;;;5133276;27;20407;-57
2022/09/28 08:18:15;;;;;;;21.13;14.50;;;8.80;99.90;;;;;;5128691;27;20054;-57
2022/09/28 08:23:25;;;;;;;19.45;14.77;;;8.90;99.90;;;;;;5138378;27;20035;-58
2022/09/28 08:25:52;;;;;;;21.60;14.03;;;9.00;99.90;;;;;;5121634;27;20481;-59
2022/09/28 08:28:19;;;;;;;17.95;12.40;;;9.10;99.90;;;;;;5115739;27;20381;-60
2022/09/28 08:30:45;;;;;;;;;;;9.10;99.90;;;;;;5118892;27;20043;-57
2022/09/28 08:33:12;;;;;;;18.50;13.35;;;9.20;99.90;;;;;;5116974;27;20490;-59
2022/09/28 08:35:39;;;;;;;23.52;15.35;;;9.30;99.90;;;;;;5115938;27;20031;-60
2022/09/28 08:38:05;;;;;;;21.05;14.15;;;9.50;99.90;;;;;;5111688;27;20075;-59
2022/09/28 08:40:36;;;;;;;25.77;16.52;;;9.50;99.90;;;;;;5114181;27;20078;-58
2022/09/28 08:43:05;;;;;;;29.15;16.05;;;9.50;99.90;;;;;;5114401;27;20042;-58
2022/09/28 08:45:34;;;;;;;24.33;14.60;;;9.50;99.90;;;;;;5126644;27;20039;-58
2022/09/28 08:51:05;;;;;;;16.13;11.75;;;9.60;99.90;;;;;;5117882;27;20075;-60
2022/09/28 08:53:49;;;;;;;17.80;12.73;;;9.60;99.90;;;;;;5122894;27;20047;-58
2022/09/28 08:56:25;;;;;;;18.70;12.65;;;9.70;99.90;;;;;;5115508;27;20032;-57
2022/09/28 08:58:57;;;;;;;21.88;14.38;;;9.70;99.90;;;;;;5120035;27;20403;-60
2022/09/28 09:01:26;;;;;;;19.33;13.40;;;9.70;99.90;;;;;;5128663;27;20660;-57
2022/09/28 09:03:51;;;;;;;18.30;12.55;;;9.70;99.90;;;;;;5110633;27;20028;-58
2022/09/28 09:06:35;;;;;;;18.07;13.67;;;9.80;99.90;;;;;;5111460;27;20476;-59
2022/09/28 09:09:03;;;;;;;16.27;11.63;;;9.80;99.90;;;;;;5111184;28;20152;-60
2022/09/28 09:12:00;;;;;;;15.73;12.15;;;9.90;99.90;;;;;;5119458;27;20127;-57
2022/09/28 09:14:46;;;;;;;18.23;12.02;;;10.00;99.90;;;;;;5118274;27;20044;-58
2022/09/28 09:17:46;;;;;;;18.48;13.43;;;10.20;99.90;;;;;;5122658;27;20034;-58
2022/09/28 09:20:15;;;;;;;17.10;12.48;;;10.40;99.90;;;;;;5117159;27;20051;-59
2022/09/28 09:22:52;;;;;;;17.35;12.27;;;10.50;99.90;;;;;;5119296;27;20389;-61
2022/09/28 09:25:30;;;;;;;16.88;11.75;;;10.70;99.90;;;;;;5122664;27;20039;-57
2022/09/28 09:28:18;;;;;;;16.63;12.95;;;10.80;99.90;;;;;;5114862;27;20035;-57
2022/09/28 09:31:01;;;;;;;;;;;11.00;99.90;;;;;;5121280;27;20482;-58
2022/09/28 09:33:37;;;;;;;15.93;11.30;;;10.90;99.90;;;;;;5111175;27;19920;-60
2022/09/28 09:36:26;;;;;;;15.88;12.68;;;10.90;99.90;;;;;;5121359;27;20054;-57
2022/09/28 09:39:14;;;;;;;17.05;13.07;;;11.10;99.90;;;;;;5117893;27;20036;-57
2022/09/28 09:42:04;;;;;;;15.82;12.13;;;11.30;99.90;;;;;;5118171;27;20059;-57
2022/09/28 09:44:30;;;;;;;15.30;12.18;;;11.40;99.90;;;;;;5118115;27;20059;-60
2022/09/28 09:47:10;;;;;;;14.63;10.77;;;11.50;99.90;;;;;;5101774;27;20090;-59
2022/09/28 09:49:43;;;;;;;15.93;11.32;;;11.50;99.90;;;;;;5120454;27;20048;-60
2022/09/28 09:52:17;;;;;;;14.15;10.23;;;11.60;99.90;;;;;;5119043;27;20047;-59
2022/09/28 09:54:52;;;;;;;14.30;10.32;;;11.70;99.90;;;;;;5122702;27;20082;-59
2022/09/28 09:57:33;;;;;;;12.63;9.52;;;11.80;99.90;;;;;;5119281;27;20033;-60
2022/09/28 10:00:02;;;;;;;13.20;9.65;;;11.90;99.90;;;;;;5116748;27;20080;-56
2022/09/28 10:02:31;;;;;;;12.98;9.35;;;11.90;99.90;;;;;;5119817;27;20027;-57
2022/09/28 10:05:11;;;;;;;13.95;9.95;;;12.00;99.90;;;;;;5118088;27;20039;-59
2022/09/28 10:08:01;;;;;;;10.15;8.50;;;12.30;99.90;;;;;;5110406;27;20045;-59
2022/09/28 10:10:32;;;;;;;10.18;9.05;;;12.60;99.90;;;;;;5118837;27;20039;-58
2022/09/28 10:12:57;;;;;;;13.40;9.65;;;12.80;99.90;;;;;;5116896;27;20504;-59
2022/09/28 10:15:29;;;;;;;11.57;8.70;;;12.90;99.90;;;;;;5116232;27;20044;-59
2022/09/28 10:17:57;;;;;;;12.32;9.27;;;12.90;99.90;;;;;;5120786;27;20061;-59
2022/09/28 10:20:24;;;;;;;15.95;10.00;;;13.00;99.90;;;;;;5116150;27;20048;-58
2022/09/28 10:22:50;;;;;;;12.02;9.50;;;13.10;99.90;;;;;;5117045;27;20123;-58
2022/09/28 10:25:17;;;;;;;10.43;7.88;;;13.20;99.90;;;;;;5112218;27;20035;-58
2022/09/28 10:27:45;;;;;;;13.25;9.65;;;13.30;99.90;;;;;;5115868;27;20400;-60
2022/09/28 10:30:15;;;;;;;13.93;8.35;;;13.30;99.90;;;;;;5111596;28;20040;-57
2022/09/28 10:32:44;;;;;;;11.32;8.73;;;13.30;99.90;;;;;;5121226;27;20495;-59
2022/09/28 10:35:39;;;;;;;12.02;7.43;;;13.40;99.90;;;;;;5115436;27;20039;-57
2022/09/28 10:38:17;;;;;;;9.40;7.72;;;13.50;99.90;;;;;;5116608;27;20035;-61
2022/09/28 10:40:51;;;;;;;12.65;8.52;;;13.70;99.90;;;;;;5097308;28;20063;-59
2022/09/28 10:43:33;;;;;;;7.35;6.32;;;13.90;99.90;;;;;;5117693;27;20030;-59
2022/09/28 10:46:22;;;;;;;10.63;8.55;;;14.00;99.90;;;;;;5131358;27;20511;-58
2022/09/28 10:49:06;;;;;;;9.02;7.10;;;14.00;99.90;;;;;;5131884;27;20053;-59
2022/09/28 10:51:53;;;;;;;7.40;6.20;;;14.00;99.90;;;;;;5126430;27;20104;-57
2022/09/28 10:54:22;;;;;;;9.50;6.72;;;14.00;99.90;;;;;;5128438;27;20053;-57
2022/09/28 10:56:49;;;;;;;10.25;7.90;;;14.10;99.90;;;;;;5127741;27;20043;-59
2022/09/28 10:59:29;;;;;;;9.13;7.25;;;14.10;99.90;;;;;;5136631;27;20122;-57
2022/09/28 11:02:03;;;;;;;8.35;7.45;;;14.00;99.90;;;;;;5136129;27;20066;-56
2022/09/28 11:04:36;;;;;;;6.82;6.13;;;14.10;99.90;;;;;;5125003;27;20039;-55
2022/09/28 11:07:02;;;;;;;13.27;7.63;;;14.20;99.90;;;;;;5123379;27;20039;-59
2022/09/28 11:09:33;;;;;;;7.90;6.72;;;14.20;99.90;;;;;;5114974;27;20096;-57
2022/09/28 11:12:03;;;;;;;5.63;5.03;;;14.20;99.90;;;;;;5120148;27;20077;-58
2022/09/28 11:14:34;;;;;;;6.88;4.15;;;14.30;99.90;;;;;;5120322;27;20038;-58
2022/09/28 11:17:22;;;;;;;4.20;3.90;;;14.30;99.90;;;;;;5122761;27;20039;-56
2022/09/28 11:19:48;;;;;;;5.32;4.15;;;14.30;99.90;;;;;;5122594;27;20043;-57
2022/09/28 11:22:27;;;;;;;5.40;3.92;;;14.30;99.90;;;;;;5117278;27;20033;-58
2022/09/28 11:25:17;;;;;;;4.47;4.07;;;14.40;99.90;;;;;;5127172;27;20039;-60
2022/09/28 11:27:51;;;;;;;4.00;3.60;;;14.50;99.90;;;;;;5121721;27;20036;-59
2022/09/28 11:30:28;;;;;;;6.18;4.28;;;14.70;99.90;;;;;;5122106;27;20553;-59
2022/09/28 11:32:59;;;;;;;5.28;4.20;;;14.80;99.90;;;;;;5119459;27;20035;-57
2022/09/28 11:35:36;;;;;;;5.13;4.43;;;14.90;99.90;;;;;;5118810;27;20152;-61
2022/09/28 11:38:28;;;;;;;;;;;14.90;99.90;;;;;;5117828;27;20047;-57
2022/09/28 11:41:31;;;;;;;9.20;4.82;;;14.90;99.90;;;;;;5124029;27;20056;-56
2022/09/28 11:44:02;;;;;;;4.78;3.55;;;14.90;99.90;;;;;;5130071;27;20459;-58
2022/09/28 11:46:47;;;;;;;4.75;4.25;;;14.70;99.90;;;;;;5122093;27;20540;-59
2022/09/28 11:49:30;;;;;;;7.38;3.97;;;14.60;99.90;;;;;;5122407;27;20147;-57
2022/09/28 11:52:02;;;;;;;4.15;3.47;;;14.60;99.90;;;;;;5124893;27;20332;-56
2022/09/28 11:54:49;;;;;;;7.93;2.97;;;14.60;99.90;;;;;;5120049;27;20097;-57
2022/09/28 11:57:17;;;;;;;;;;;14.80;99.90;;;;;;5116736;27;20047;-56
2022/09/28 11:59:59;;;;;;;3.00;2.80;;;14.90;99.90;;;;;;5124225;27;19915;-58
2022/09/28 12:02:41;;;;;;;6.72;3.42;;;15.00;99.90;;;;;;5121230;27;20507;-58
2022/09/28 12:05:27;;;;;;;4.15;3.38;;;15.00;99.90;;;;;;5123576;27;20396;-60
2022/09/28 12:08:04;;;;;;;3.37;3.07;;;15.10;99.90;;;;;;5119060;27;20092;-59
2022/09/28 12:10:47;;;;;;;2.80;2.60;;;15.10;99.90;;;;;;5117537;27;20051;-57
2022/09/28 12:13:21;;;;;;;3.60;1.70;;;15.20;99.90;;;;;;5119231;27;20042;-61
2022/09/28 12:16:00;;;;;;;1.92;1.55;;;15.30;99.90;;;;;;5123616;27;20058;-57
2022/09/28 12:18:29;;;;;;;1.88;1.48;;;15.40;99.90;;;;;;5122167;27;20040;-58
2022/09/28 12:21:24;;;;;;;2.47;1.48;;;15.60;99.90;;;;;;5118217;27;20126;-58
2022/09/28 12:23:59;;;;;;;1.55;0.95;;;15.70;99.90;;;;;;5118293;27;20046;-58
2022/09/28 12:26:32;;;;;;;2.30;0.75;;;15.80;99.90;;;;;;5121895;27;20039;-57
2022/09/28 12:29:03;;;;;;;1.00;0.65;;;15.90;99.90;;;;;;5121309;27;20032;-57
2022/09/28 12:31:39;;;;;;;3.05;0.70;;;15.90;99.90;;;;;;5112931;27;20050;-59
2022/09/28 12:34:06;;;;;;;3.10;1.20;;;15.90;99.90;;;;;;5113287;27;20039;-59
2022/09/28 12:37:01;;;;;;;3.38;0.80;;;15.90;99.90;;;;;;5116665;27;20067;-57
2022/09/28 12:39:42;;;;;;;1.67;0.50;;;15.90;99.90;;;;;;5105546;27;20168;-58
2022/09/28 12:42:19;;;;;;;0.85;0.43;;;15.80;99.90;;;;;;5120784;27;20033;-58
2022/09/28 12:45:07;;;;;;;3.45;0.40;;;15.70;99.90;;;;;;5125489;27;20035;-59
2022/09/28 12:47:40;;;;;;;0.45;0.30;;;15.70;99.90;;;;;;5097831;28;20126;-58
2022/09/28 12:50:20;;;;;;;1.20;0.30;;;15.80;99.90;;;;;;5115848;27;20152;-59
2022/09/28 12:53:18;;;;;;;3.03;0.30;;;16.00;99.90;;;;;;5115145;27;20389;-59
2022/09/28 12:55:55;;;;;;;0.52;0.25;;;16.00;99.90;;;;;;5115986;27;20069;-57
2022/09/28 12:58:42;;;;;;;0.50;0.30;;;15.90;99.90;;;;;;5114410;27;20377;-57
2022/09/28 13:01:25;;;;;;;;;;;15.70;99.90;;;;;;5119263;27;20051;-60
2022/09/28 13:04:19;;;;;;;0.65;0.20;;;15.70;99.90;;;;;;5116936;27;19916;-58
2022/09/28 13:06:55;;;;;;;2.47;0.20;;;15.60;99.90;;;;;;5117687;27;20035;-57
2022/09/28 13:09:23;;;;;;;0.40;0.13;;;15.60;99.90;;;;;;5118628;27;20087;-59
2022/09/28 13:12:12;;;;;;;0.70;0.30;;;15.50;99.90;;;;;;5116684;27;20028;-57
2022/09/28 13:15:23;;;;;;;0.93;0.30;;;15.50;99.90;;;;;;5124006;27;20555;-59
2022/09/28 13:18:29;;;;;;;0.55;0.30;;;15.40;99.70;;;;;;5120528;27;20044;-58
2022/09/28 13:21:16;;;;;;;1.23;0.65;;;15.20;99.90;;;;;;5118686;27;20073;-59
2022/09/28 13:23:45;;;;;;;0.90;0.40;;;15.10;99.90;;;;;;5117301;27;20035;-58